createdAt,value
2023-03-26T00:01:49.928Z,8.40
2023-03-26T00:04:19.789Z,8.42
2023-03-26T00:06:48.986Z,8.40
2023-03-26T00:09:17.600Z,8.40
2023-03-26T00:11:46.423Z,8.42
2023-03-26T00:14:17.515Z,8.45
2023-03-26T00:16:47.471Z,8.44
2023-03-26T00:19:16.723Z,8.40
2023-03-26T00:21:44.581Z,8.47
2023-03-26T00:24:14.991Z,8.83
2023-03-26T00:26:43.435Z,8.88
2023-03-26T00:29:13.533Z,9.10
2023-03-26T00:31:46.158Z,9.07
2023-03-26T00:34:18.356Z,9.22
2023-03-26T00:36:47.831Z,9.10
2023-03-26T00:39:17.842Z,9.10
2023-03-26T00:41:45.938Z,9.13
2023-03-26T00:44:14.100Z,9.30
2023-03-26T00:46:42.703Z,9.22
2023-03-26T00:49:14.757Z,9.29
2023-03-26T00:51:44.315Z,9.29
2023-03-26T00:54:12.798Z,9.57
2023-03-26T00:56:40.963Z,9.50
2023-03-26T00:59:09.438Z,9.51
2023-03-26T01:01:37.678Z,9.44
2023-03-26T01:04:28.200Z,9.41
2023-03-26T01:07:02.709Z,9.51
2023-03-26T01:09:35.932Z,9.54
2023-03-26T01:12:07.849Z,9.48
2023-03-26T01:14:36.173Z,9.43
2023-03-26T01:17:07.284Z,9.51
2023-03-26T01:19:50.997Z,9.37
2023-03-26T01:22:22.556Z,9.30
2023-03-26T01:24:56.246Z,9.44
2023-03-26T01:27:38.898Z,9.37
2023-03-26T01:30:13.128Z,9.38
2023-03-26T01:32:51.341Z,9.43
2023-03-26T01:35:28.395Z,9.44
2023-03-26T01:38:10.584Z,9.51
2023-03-26T01:40:46.736Z,9.51
2023-03-26T01:43:26.175Z,9.58
2023-03-26T01:45:55.584Z,9.67
2023-03-26T01:48:31.638Z,9.50
2023-03-26T01:50:59.863Z,9.48
2023-03-26T01:53:28.286Z,9.47
2023-03-26T01:56:06.320Z,9.46
2023-03-26T01:58:42.300Z,9.50
2023-03-26T02:01:20.024Z,9.46
2023-03-26T02:03:54.643Z,9.55
2023-03-26T02:06:30.745Z,9.50
2023-03-26T02:09:03.573Z,9.48
2023-03-26T02:11:35.884Z,9.38
2023-03-26T02:14:05.325Z,9.40
2023-03-26T02:16:33.452Z,9.46
2023-03-26T02:19:01.368Z,9.34
2023-03-26T02:21:33.958Z,9.29
2023-03-26T02:24:03.872Z,9.29
2023-03-26T02:26:37.744Z,9.17
2023-03-26T02:29:13.449Z,9.17
2023-03-26T02:31:44.153Z,9.15
2023-03-26T02:34:12.036Z,9.05
2023-03-26T02:36:44.891Z,9.06
2023-03-26T02:39:14.375Z,9.06
2023-03-26T02:41:47.039Z,9.09
2023-03-26T02:44:14.910Z,9.10
2023-03-26T02:47:01.367Z,9.17
2023-03-26T02:49:47.980Z,9.34
2023-03-26T02:52:24.170Z,9.19
2023-03-26T02:54:53.645Z,9.26
2023-03-26T02:57:25.333Z,9.13
2023-03-26T02:59:53.792Z,9.29
2023-03-26T03:02:37.901Z,9.23
2023-03-26T03:05:27.088Z,9.24
2023-03-26T03:08:13.315Z,9.15
2023-03-26T03:10:59.521Z,9.36
2023-03-26T03:13:42.252Z,9.44
2023-03-26T03:16:11.068Z,9.50
2023-03-26T03:18:38.967Z,9.67
2023-03-26T03:21:07.934Z,9.58
2023-03-26T03:23:36.460Z,9.40
2023-03-26T03:26:15.572Z,9.09
2023-03-26T03:28:48.515Z,9.05
2023-03-26T03:31:17.505Z,9.22
2023-03-26T03:33:46.496Z,9.24
2023-03-26T03:36:20.360Z,9.40
2023-03-26T03:38:52.195Z,9.38
2023-03-26T03:41:22.310Z,9.74
2023-03-26T03:43:51.916Z,9.77
2023-03-26T03:46:26.719Z,9.82
2023-03-26T03:48:54.667Z,9.87
2023-03-26T03:51:30.410Z,9.89
2023-03-26T03:54:03.941Z,9.79
2023-03-26T03:56:51.102Z,9.65
2023-03-26T03:59:20.771Z,9.60
2023-03-26T04:01:50.873Z,9.77
2023-03-26T04:04:34.331Z,9.74
2023-03-26T04:07:04.968Z,9.71
2023-03-26T04:09:40.398Z,9.62
2023-03-26T04:12:15.374Z,9.57
2023-03-26T04:14:50.674Z,9.48
2023-03-26T04:17:21.885Z,9.51
2023-03-26T04:19:53.016Z,9.22
2023-03-26T04:22:21.641Z,9.00
2023-03-26T04:24:55.816Z,8.76
2023-03-26T04:27:55.621Z,8.68
2023-03-26T04:30:38.391Z,8.62
2023-03-26T04:33:24.976Z,8.56
2023-03-26T04:35:54.575Z,8.42
2023-03-26T04:38:23.862Z,8.37
2023-03-26T04:40:53.861Z,8.30
2023-03-26T04:43:47.092Z,8.21
2023-03-26T04:46:23.483Z,8.04
2023-03-26T04:49:01.835Z,8.04
2023-03-26T04:51:38.172Z,7.94
2023-03-26T04:54:15.454Z,7.94
2023-03-26T04:56:54.427Z,7.76
2023-03-26T04:59:26.543Z,7.77
2023-03-26T05:01:58.007Z,7.91
2023-03-26T05:04:29.439Z,8.01
2023-03-26T05:06:59.153Z,8.04
2023-03-26T05:09:35.698Z,8.03
2023-03-26T05:12:13.118Z,8.07
2023-03-26T05:14:52.685Z,8.04
2023-03-26T05:17:34.918Z,7.79
2023-03-26T05:20:04.333Z,7.84
2023-03-26T05:22:32.689Z,7.84
2023-03-26T05:25:21.200Z,7.86
2023-03-26T05:27:49.987Z,7.97
2023-03-26T05:30:21.728Z,7.93
2023-03-26T05:32:56.698Z,7.84
2023-03-26T05:35:29.829Z,7.83
2023-03-26T05:37:58.900Z,7.90
2023-03-26T05:40:27.332Z,7.83
2023-03-26T05:43:00.733Z,7.91
2023-03-26T05:45:31.266Z,7.96
2023-03-26T05:48:03.747Z,7.93
2023-03-26T05:50:31.632Z,7.89
2023-03-26T05:53:01.510Z,7.94
2023-03-26T05:55:50.418Z,7.84
2023-03-26T05:58:37.931Z,7.82
2023-03-26T06:01:25.657Z,7.63
2023-03-26T06:04:16.031Z,7.72
2023-03-26T06:06:54.087Z,7.69
2023-03-26T06:09:22.855Z,7.72
2023-03-26T06:11:50.969Z,7.79
2023-03-26T06:14:18.800Z,7.75
2023-03-26T06:17:18.822Z,7.72
2023-03-26T06:20:09.492Z,7.72
2023-03-26T06:22:43.656Z,7.72
2023-03-26T06:25:19.875Z,7.69
2023-03-26T06:28:06.866Z,7.84
2023-03-26T06:31:02.597Z,7.79
2023-03-26T06:33:37.187Z,7.90
2023-03-26T06:36:08.049Z,7.86
2023-03-26T06:38:36.512Z,7.90
2023-03-26T06:41:07.871Z,7.93
2023-03-26T06:44:11.653Z,7.96
2023-03-26T06:47:11.590Z,7.91
2023-03-26T06:49:51.454Z,8.01
2023-03-26T06:52:40.828Z,7.91
2023-03-26T06:55:46.766Z,7.76
2023-03-26T06:58:40.927Z,7.80
2023-03-26T07:01:38.253Z,7.82
2023-03-26T07:04:25.253Z,7.59
2023-03-26T07:07:12.431Z,7.72
2023-03-26T07:10:00.019Z,7.67
2023-03-26T07:12:46.553Z,7.75
2023-03-26T07:15:32.975Z,7.97
2023-03-26T07:18:14.506Z,7.98
2023-03-26T07:20:46.086Z,7.86
2023-03-26T07:23:15.595Z,7.86
2023-03-26T07:25:45.450Z,7.90
2023-03-26T07:28:20.471Z,7.91
2023-03-26T07:31:12.562Z,8.07
2023-03-26T07:33:54.870Z,8.21
2023-03-26T07:36:45.392Z,8.48
2023-03-26T07:39:45.548Z,8.33
2023-03-26T07:43:03.348Z,8.20
2023-03-26T07:46:12.347Z,8.54
2023-03-26T07:48:53.966Z,8.55
2023-03-26T07:51:36.149Z,8.66
2023-03-26T07:54:15.041Z,8.25
2023-03-26T07:57:08.741Z,8.01
2023-03-26T07:59:51.973Z,7.93
2023-03-26T08:02:39.162Z,7.69
2023-03-26T08:05:27.616Z,7.66
2023-03-26T08:08:25.455Z,7.65
2023-03-26T08:11:25.259Z,7.72
2023-03-26T08:14:07.645Z,7.73
2023-03-26T08:16:44.381Z,7.94
2023-03-26T08:19:25.376Z,8.00
2023-03-26T08:21:55.703Z,7.98
2023-03-26T08:24:28.306Z,7.86
2023-03-26T08:27:05.294Z,7.83
2023-03-26T08:29:42.147Z,7.79
2023-03-26T08:32:15.619Z,7.62
2023-03-26T08:34:43.548Z,7.70
2023-03-26T08:37:13.456Z,7.67
2023-03-26T08:39:42.397Z,7.62
2023-03-26T08:42:27.669Z,7.82
2023-03-26T08:45:35.620Z,7.76
2023-03-26T08:48:44.334Z,7.48
2023-03-26T08:51:30.043Z,7.72
2023-03-26T08:54:47.946Z,7.63
2023-03-26T08:57:36.895Z,7.77
2023-03-26T09:00:42.867Z,7.62
2023-03-26T09:03:38.635Z,7.87
2023-03-26T09:06:39.308Z,7.97
2023-03-26T09:09:58.575Z,7.84
2023-03-26T09:12:53.450Z,7.76
2023-03-26T09:15:49.060Z,7.82
2023-03-26T09:19:01.575Z,7.75
2023-03-26T09:22:24.314Z,7.83
2023-03-26T09:25:20.366Z,7.96
2023-03-26T09:28:11.378Z,8.14
2023-03-26T09:31:07.967Z,8.00
2023-03-26T09:33:56.290Z,8.11
2023-03-26T09:36:38.370Z,8.01
2023-03-26T09:39:17.500Z,8.13
2023-03-26T09:42:00.424Z,8.11
2023-03-26T09:44:48.155Z,8.06
2023-03-26T09:47:48.783Z,8.01
2023-03-26T09:50:36.588Z,7.76
2023-03-26T09:53:27.175Z,7.73
2023-03-26T09:56:04.575Z,7.83
2023-03-26T09:58:57.325Z,7.80
2023-03-26T10:01:35.150Z,7.77
2023-03-26T10:04:38.544Z,7.67
2023-03-26T10:07:18.200Z,7.65
2023-03-26T10:09:56.167Z,7.72
2023-03-26T10:12:32.822Z,7.82
2023-03-26T10:15:12.291Z,7.80
2023-03-26T10:17:52.139Z,7.65
2023-03-26T10:20:30.241Z,7.52
2023-03-26T10:23:14.037Z,7.43
2023-03-26T10:25:54.888Z,7.66
2023-03-26T10:28:49.445Z,7.84
2023-03-26T10:31:34.239Z,8.04
2023-03-26T10:34:35.333Z,8.40
2023-03-26T10:37:09.706Z,8.54
2023-03-26T10:40:16.628Z,8.58
2023-03-26T10:43:16.956Z,8.83
2023-03-26T10:46:03.762Z,8.95
2023-03-26T10:48:46.829Z,8.85
2023-03-26T10:51:44.099Z,8.66
2023-03-26T10:54:20.141Z,8.75
2023-03-26T10:56:51.163Z,8.78
2023-03-26T10:59:20.087Z,8.62
2023-03-26T11:02:04.401Z,8.66
2023-03-26T11:04:43.323Z,8.73
2023-03-26T11:07:19.822Z,8.69
2023-03-26T11:09:52.638Z,8.71
2023-03-26T11:12:29.928Z,8.75
2023-03-26T11:15:11.761Z,8.96
2023-03-26T11:17:51.349Z,8.88
2023-03-26T11:20:23.667Z,9.00
2023-03-26T11:23:07.447Z,9.13
2023-03-26T11:25:44.713Z,9.37
2023-03-26T11:28:26.926Z,9.31
2023-03-26T11:31:00.219Z,9.34
2023-03-26T11:33:33.384Z,9.48
2023-03-26T11:36:05.106Z,9.52
2023-03-26T11:38:38.352Z,9.55
2023-03-26T11:41:13.714Z,9.58
2023-03-26T11:43:56.502Z,9.62
2023-03-26T11:46:28.584Z,9.87
2023-03-26T11:48:59.923Z,9.94
2023-03-26T11:51:31.947Z,9.87
2023-03-26T11:54:00.155Z,9.94
2023-03-26T11:56:32.487Z,10.01
2023-03-26T11:59:05.530Z,10.20
2023-03-26T12:01:50.258Z,10.42
2023-03-26T12:04:20.665Z,10.42
2023-03-26T12:06:56.528Z,10.45
2023-03-26T12:09:25.765Z,10.22
2023-03-26T12:12:02.007Z,10.13
2023-03-26T12:14:35.771Z,10.30
2023-03-26T12:17:08.234Z,10.29
2023-03-26T12:19:41.478Z,10.59
2023-03-26T12:22:33.374Z,10.70
2023-03-26T12:25:18.355Z,10.67
2023-03-26T12:27:49.337Z,10.52
2023-03-26T12:30:23.955Z,10.64
2023-03-26T12:32:53.480Z,10.67
2023-03-26T12:35:27.208Z,10.73
2023-03-26T12:37:57.957Z,10.64
2023-03-26T12:40:32.475Z,10.73
2023-03-26T12:44:50.337Z,10.71
2023-03-26T12:47:15.082Z,10.46
2023-03-26T12:48:39.913Z,10.30
2023-03-26T12:51:17.251Z,10.22
2023-03-26T12:53:59.991Z,10.06
2023-03-26T12:56:36.897Z,9.98
2023-03-26T12:59:38.687Z,10.01
2023-03-26T13:02:25.394Z,9.95
2023-03-26T13:05:06.754Z,9.87
2023-03-26T13:07:50.733Z,9.73
2023-03-26T13:10:31.221Z,9.71
2023-03-26T13:13:12.133Z,9.75
2023-03-26T13:15:45.306Z,9.75
2023-03-26T13:18:28.408Z,9.84
2023-03-26T13:21:02.982Z,9.78
2023-03-26T13:23:43.969Z,9.68
2023-03-26T13:26:23.551Z,9.64
2023-03-26T13:29:04.326Z,9.58
2023-03-26T13:31:39.392Z,9.61
2023-03-26T13:34:19.532Z,9.48
2023-03-26T13:37:00.080Z,9.31
2023-03-26T13:39:36.120Z,9.23
2023-03-26T13:42:15.728Z,9.17
2023-03-26T13:45:05.072Z,9.06
2023-03-26T13:47:37.757Z,9.02
2023-03-26T13:50:20.008Z,9.03
2023-03-26T13:52:52.220Z,8.96
2023-03-26T13:55:26.293Z,8.71
2023-03-26T13:58:02.130Z,8.62
2023-03-26T14:00:38.309Z,8.71
2023-03-26T14:03:17.320Z,8.75
2023-03-26T14:05:50.740Z,8.69
2023-03-26T14:08:23.560Z,8.75
2023-03-26T14:10:55.729Z,8.54
2023-03-26T14:13:31.201Z,8.49
2023-03-26T14:16:03.324Z,8.51
2023-03-26T14:18:37.947Z,8.33
2023-03-26T14:21:37.228Z,8.37
2023-03-26T14:24:19.045Z,8.34
2023-03-26T14:26:59.559Z,8.30
2023-03-26T14:29:56.798Z,8.30
2023-03-26T14:32:37.895Z,8.08
2023-03-26T14:35:21.326Z,8.01
2023-03-26T14:38:18.593Z,7.94
2023-03-26T14:40:58.687Z,7.96
2023-03-26T14:43:53.621Z,7.82
2023-03-26T14:46:41.935Z,7.94
2023-03-26T14:49:56.916Z,7.77
2023-03-26T14:52:32.691Z,7.76
2023-03-26T14:55:07.532Z,7.66
2023-03-26T14:58:09.559Z,7.75
2023-03-26T15:01:20.629Z,7.75
2023-03-26T15:04:24.453Z,7.58
2023-03-26T15:07:21.344Z,7.73
2023-03-26T15:10:12.951Z,7.75
2023-03-26T15:13:01.987Z,7.69
2023-03-26T15:16:04.133Z,7.73
2023-03-26T15:18:57.889Z,7.75
2023-03-26T15:21:52.773Z,7.86
2023-03-26T15:24:53.249Z,7.89
2023-03-26T15:27:58.452Z,8.03
2023-03-26T15:30:56.384Z,8.10
2023-03-26T15:34:00.447Z,8.07
2023-03-26T15:36:53.280Z,7.94
2023-03-26T15:39:44.302Z,7.84
2023-03-26T15:42:38.236Z,7.90
2023-03-26T15:45:27.615Z,7.89
2023-03-26T15:48:34.239Z,7.98
2023-03-26T15:51:21.890Z,8.00
2023-03-26T15:53:56.534Z,7.83
2023-03-26T15:56:40.357Z,8.01
2023-03-26T15:59:24.052Z,8.10
2023-03-26T16:02:03.940Z,8.10
2023-03-26T16:04:50.486Z,8.16
2023-03-26T16:07:47.219Z,8.06
2023-03-26T16:10:28.052Z,8.03
2023-03-26T16:13:21.642Z,7.97
2023-03-26T16:15:55.977Z,7.94
2023-03-26T16:18:31.094Z,7.94
2023-03-26T16:21:47.826Z,7.91
2023-03-26T16:24:23.561Z,7.93
2023-03-26T16:27:27.124Z,7.94
2023-03-26T16:30:20.208Z,7.82
2023-03-26T16:32:56.237Z,7.79
2023-03-26T16:35:42.188Z,7.79
2023-03-26T16:38:16.088Z,7.86
2023-03-26T16:41:02.265Z,7.82
2023-03-26T16:44:02.239Z,7.73
2023-03-26T16:46:39.174Z,7.59
2023-03-26T16:49:16.567Z,7.63
2023-03-26T16:52:14.653Z,7.61
2023-03-26T16:54:52.424Z,7.56
2023-03-26T16:57:28.916Z,7.55
2023-03-26T17:00:27.462Z,7.51
2023-03-26T17:03:03.582Z,7.49
2023-03-26T17:05:37.844Z,7.46
2023-03-26T17:08:16.509Z,7.42
2023-03-26T17:10:57.164Z,7.45
2023-03-26T17:13:43.927Z,7.35
2023-03-26T17:16:20.922Z,7.38
2023-03-26T17:18:56.512Z,7.34
2023-03-26T17:21:46.513Z,7.26
2023-03-26T17:24:27.232Z,7.24
2023-03-26T17:27:33.974Z,7.16
2023-03-26T17:30:22.154Z,7.15
2023-03-26T17:32:58.780Z,7.08
2023-03-26T17:35:40.407Z,7.01
2023-03-26T17:38:26.629Z,6.95
2023-03-26T17:40:58.753Z,6.83
2023-03-26T17:43:40.255Z,6.81
2023-03-26T17:46:21.808Z,6.77
2023-03-26T17:48:57.737Z,6.80
2023-03-26T17:51:38.815Z,6.77
2023-03-26T17:54:09.453Z,6.70
2023-03-26T17:56:38.845Z,6.71
2023-03-26T17:59:11.560Z,6.70
2023-03-26T18:01:42.282Z,6.70
2023-03-26T18:04:19.644Z,6.67
2023-03-26T18:07:01.777Z,6.64
2023-03-26T18:09:44.569Z,6.64
2023-03-26T18:12:36.746Z,6.62
2023-03-26T18:15:28.391Z,6.56
2023-03-26T18:18:03.975Z,6.54
2023-03-26T18:20:32.510Z,6.50
2023-03-26T18:23:09.257Z,6.42
2023-03-26T18:25:37.787Z,6.39
2023-03-26T18:28:07.107Z,6.39
2023-03-26T18:30:47.275Z,6.30
2023-03-26T18:33:16.395Z,6.29
2023-03-26T18:35:46.345Z,6.22
2023-03-26T18:38:19.350Z,6.25
2023-03-26T18:41:08.073Z,6.23
2023-03-26T18:43:43.912Z,6.23
2023-03-26T18:46:13.593Z,6.12
2023-03-26T18:48:41.821Z,6.13
2023-03-26T18:51:09.853Z,6.11
2023-03-26T18:53:41.797Z,6.06
2023-03-26T18:56:29.386Z,6.06
2023-03-26T18:59:00.048Z,6.05
2023-03-26T19:01:31.591Z,6.06
2023-03-26T19:04:03.700Z,6.05
2023-03-26T19:06:36.041Z,6.09
2023-03-26T19:09:16.339Z,6.08
2023-03-26T19:11:57.146Z,6.01
2023-03-26T19:14:28.635Z,5.99
2023-03-26T19:17:01.424Z,6.01
2023-03-26T19:19:33.709Z,5.94
2023-03-26T19:22:03.235Z,5.95
2023-03-26T19:24:31.748Z,5.89
2023-03-26T19:26:59.804Z,5.89
2023-03-26T19:29:32.335Z,5.87
2023-03-26T19:32:04.407Z,5.89
2023-03-26T19:34:34.861Z,5.82
2023-03-26T19:37:04.965Z,5.82
2023-03-26T19:39:41.493Z,5.79
2023-03-26T19:42:15.007Z,5.82
2023-03-26T19:44:44.488Z,5.84
2023-03-26T19:47:18.639Z,5.82
2023-03-26T19:49:52.880Z,5.82
2023-03-26T19:52:24.789Z,5.79
2023-03-26T19:55:01.295Z,5.82
2023-03-26T19:57:30.631Z,5.81
2023-03-26T20:00:00.271Z,5.74
2023-03-26T20:02:28.677Z,5.71
2023-03-26T20:04:56.692Z,5.70
2023-03-26T20:07:35.121Z,5.67
2023-03-26T20:10:06.420Z,5.68
2023-03-26T20:12:34.355Z,5.60
2023-03-26T20:15:07.429Z,5.58
2023-03-26T20:17:50.138Z,5.55
2023-03-26T20:20:18.373Z,5.51
2023-03-26T20:22:46.926Z,5.51
2023-03-26T20:27:53.007Z,5.52
2023-03-26T20:30:36.968Z,5.47
2023-03-26T20:33:12.588Z,5.46
2023-03-26T20:35:41.804Z,5.44
2023-03-26T20:38:10.295Z,5.43
2023-03-26T20:40:38.944Z,5.36
2023-03-26T20:43:11.715Z,5.34
2023-03-26T20:45:41.092Z,5.33
2023-03-26T20:48:10.240Z,5.27
2023-03-26T20:50:49.973Z,5.19
2023-03-26T20:53:20.352Z,5.13
2023-03-26T20:55:50.386Z,5.12
2023-03-26T20:58:30.721Z,5.00
2023-03-26T21:01:02.567Z,4.99
2023-03-26T21:03:30.606Z,4.90
2023-03-26T21:06:01.823Z,4.88
2023-03-26T21:08:35.250Z,4.86
2023-03-26T21:11:04.857Z,4.83
2023-03-26T21:13:38.308Z,4.76
2023-03-26T21:16:09.147Z,4.80
2023-03-26T21:18:37.856Z,4.80
2023-03-26T21:21:21.378Z,4.75
2023-03-26T21:23:59.400Z,4.73
2023-03-26T21:26:33.608Z,4.73
2023-03-26T21:29:09.624Z,4.80
2023-03-26T21:31:39.631Z,4.76
2023-03-26T21:34:09.624Z,4.78
2023-03-26T21:36:38.121Z,4.72
2023-03-26T21:39:06.634Z,4.72
2023-03-26T21:41:43.580Z,4.72
2023-03-26T21:44:11.839Z,4.68
2023-03-26T21:46:42.902Z,4.58
2023-03-26T21:49:11.549Z,4.57
2023-03-26T21:51:39.961Z,4.52
2023-03-26T21:54:22.144Z,4.55
2023-03-26T21:56:59.986Z,4.54
2023-03-26T21:59:37.478Z,4.48
2023-03-26T22:02:11.205Z,4.45
2023-03-26T22:04:46.153Z,4.45
2023-03-26T22:07:18.673Z,4.41
2023-03-26T22:09:47.377Z,4.41
2023-03-26T22:12:15.202Z,4.40
2023-03-26T22:14:43.042Z,4.37
2023-03-26T22:17:12.249Z,4.33
2023-03-26T22:19:40.125Z,4.37
2023-03-26T22:22:07.998Z,4.31
2023-03-26T22:24:35.806Z,4.28
2023-03-26T22:27:03.786Z,4.24
2023-03-26T22:29:31.655Z,4.22
2023-03-26T22:31:59.584Z,4.20
2023-03-26T22:34:29.219Z,4.17
2023-03-26T22:36:57.243Z,4.16
2023-03-26T22:39:25.129Z,4.13
2023-03-26T22:41:52.972Z,4.13
2023-03-26T22:44:20.834Z,4.11
2023-03-26T22:46:51.451Z,4.06
2023-03-26T22:49:19.718Z,4.03
2023-03-26T22:51:50.149Z,4.01
2023-03-26T22:54:18.028Z,3.97
2023-03-26T22:56:45.873Z,3.94
2023-03-26T22:59:14.234Z,3.94
2023-03-26T23:01:44.249Z,3.93
2023-03-26T23:04:12.966Z,3.83
2023-03-26T23:07:01.188Z,3.77
2023-03-26T23:09:29.422Z,3.76
2023-03-26T23:11:57.469Z,3.76
2023-03-26T23:14:25.355Z,3.70
2023-03-26T23:16:53.242Z,3.73
2023-03-26T23:19:21.147Z,3.73
2023-03-26T23:21:48.960Z,3.80
2023-03-26T23:24:18.453Z,3.73
2023-03-26T23:29:17.441Z,3.66
2023-03-26T23:31:45.543Z,3.67
2023-03-26T23:34:14.244Z,3.60
2023-03-26T23:36:42.387Z,3.53
2023-03-26T23:39:10.959Z,3.49
2023-03-26T23:41:40.214Z,3.45
2023-03-26T23:44:08.089Z,3.39
2023-03-26T23:46:35.930Z,3.29
2023-03-26T23:49:03.848Z,3.24
2023-03-26T23:51:32.422Z,3.16
2023-03-26T23:54:01.468Z,3.01
2023-03-26T23:56:30.401Z,2.93
2023-03-26T23:59:00.548Z,2.85
